sensor_id;sensor_type;location;lat;lon;timestamp;temperature;humidity
14210;DHT22;7188;56.070;12.698;2023-01-28T00:01:38;-1.90;99.90
14210;DHT22;7188;56.070;12.698;2023-01-28T00:04:10;-1.90;99.90
14210;DHT22;7188;56.070;12.698;2023-01-28T00:06:36;-1.90;84.30
14210;DHT22;7188;56.070;12.698;2023-01-28T00:09:02;-2.30;1.00
14210;DHT22;7188;56.070;12.698;2023-01-28T00:11:29;-2.60;1.00
14210;DHT22;7188;56.070;12.698;2023-01-28T00:13:56;-2.90;1.00
14210;DHT22;7188;56.070;12.698;2023-01-28T00:16:22;-3.20;1.00
14210;DHT22;7188;56.070;12.698;2023-01-28T00:18:51;-2.80;1.00
14210;DHT22;7188;56.070;12.698;2023-01-28T00:21:17;-2.60;37.90
14210;DHT22;7188;56.070;12.698;2023-01-28T00:24:00;-2.60;11.30
14210;DHT22;7188;56.070;12.698;2023-01-28T00:26:26;-2.60;43.70
14210;DHT22;7188;56.070;12.698;2023-01-28T00:28:57;-2.30;99.90
14210;DHT22;7188;56.070;12.698;2023-01-28T00:31:44;-2.60;34.40
14210;DHT22;7188;56.070;12.698;2023-01-28T00:34:10;-2.70;36.40
14210;DHT22;7188;56.070;12.698;2023-01-28T00:36:42;-2.70;82.90
14210;DHT22;7188;56.070;12.698;2023-01-28T00:39:28;-2.50;99.90
14210;DHT22;7188;56.070;12.698;2023-01-28T00:41:54;-2.60;99.90
14210;DHT22;7188;56.070;12.698;2023-01-28T00:44:39;-3.00;39.10
14210;DHT22;7188;56.070;12.698;2023-01-28T00:47:05;-2.60;99.90
14210;DHT22;7188;56.070;12.698;2023-01-28T00:49:32;-2.50;99.90
14210;DHT22;7188;56.070;12.698;2023-01-28T00:51:58;-2.50;99.90
14210;DHT22;7188;56.070;12.698;2023-01-28T00:54:24;-2.30;99.90
14210;DHT22;7188;56.070;12.698;2023-01-28T00:56:52;-2.30;99.90
14210;DHT22;7188;56.070;12.698;2023-01-28T00:59:18;-2.10;99.90
14210;DHT22;7188;56.070;12.698;2023-01-28T01:01:44;-1.90;99.90
14210;DHT22;7188;56.070;12.698;2023-01-28T01:04:13;-2.20;99.90
14210;DHT22;7188;56.070;12.698;2023-01-28T01:06:51;-2.50;99.90
14210;DHT22;7188;56.070;12.698;2023-01-28T01:09:32;-2.80;99.90
14210;DHT22;7188;56.070;12.698;2023-01-28T01:12:13;-2.50;99.90
14210;DHT22;7188;56.070;12.698;2023-01-28T01:14:39;-2.20;99.90
14210;DHT22;7188;56.070;12.698;2023-01-28T01:17:07;-1.80;99.90
14210;DHT22;7188;56.070;12.698;2023-01-28T01:19:33;-1.90;99.90
14210;DHT22;7188;56.070;12.698;2023-01-28T01:21:59;-2.10;99.90
14210;DHT22;7188;56.070;12.698;2023-01-28T01:24:24;-2.20;99.90
14210;DHT22;7188;56.070;12.698;2023-01-28T01:26:54;-2.40;99.90
14210;DHT22;7188;56.070;12.698;2023-01-28T01:29:19;-2.70;99.90
14210;DHT22;7188;56.070;12.698;2023-01-28T01:31:45;-2.70;99.90
14210;DHT22;7188;56.070;12.698;2023-01-28T01:34:11;-2.40;99.90
14210;DHT22;7188;56.070;12.698;2023-01-28T01:36:38;-2.10;1.00
14210;DHT22;7188;56.070;12.698;2023-01-28T01:39:06;-1.80;1.00
14210;DHT22;7188;56.070;12.698;2023-01-28T01:41:33;-1.70;1.00
14210;DHT22;7188;56.070;12.698;2023-01-28T01:44:03;-1.80;1.00
14210;DHT22;7188;56.070;12.698;2023-01-28T01:46:45;-1.30;1.00
14210;DHT22;7188;56.070;12.698;2023-01-28T01:49:43;-0.60;1.00
14210;DHT22;7188;56.070;12.698;2023-01-28T01:52:30;-0.60;1.00
14210;DHT22;7188;56.070;12.698;2023-01-28T01:54:59;-1.00;1.00
14210;DHT22;7188;56.070;12.698;2023-01-28T01:57:30;-1.00;1.00
14210;DHT22;7188;56.070;12.698;2023-01-28T01:59:57;-0.90;1.00
14210;DHT22;7188;56.070;12.698;2023-01-28T02:02:53;-0.90;1.00
14210;DHT22;7188;56.070;12.698;2023-01-28T02:05:21;-0.80;1.00
14210;DHT22;7188;56.070;12.698;2023-01-28T02:07:49;-0.70;1.00
14210;DHT22;7188;56.070;12.698;2023-01-28T02:10:15;-0.40;1.00
14210;DHT22;7188;56.070;12.698;2023-01-28T02:12:49;-0.50;1.00
14210;DHT22;7188;56.070;12.698;2023-01-28T02:15:18;-0.50;1.00
14210;DHT22;7188;56.070;12.698;2023-01-28T02:17:46;-0.50;1.00
14210;DHT22;7188;56.070;12.698;2023-01-28T02:20:20;-0.70;1.00
14210;DHT22;7188;56.070;12.698;2023-01-28T02:26:06;-0.60;1.00
14210;DHT22;7188;56.070;12.698;2023-01-28T02:39:07;-0.40;1.00
14210;DHT22;7188;56.070;12.698;2023-01-28T02:42:01;-0.20;1.00
14210;DHT22;7188;56.070;12.698;2023-01-28T02:44:23;-0.50;1.00
14210;DHT22;7188;56.070;12.698;2023-01-28T02:46:51;-0.60;1.00
14210;DHT22;7188;56.070;12.698;2023-01-28T02:49:40;-0.40;1.00
14210;DHT22;7188;56.070;12.698;2023-01-28T02:52:28;-0.10;1.00
14210;DHT22;7188;56.070;12.698;2023-01-28T02:55:39;0.00;1.00
14210;DHT22;7188;56.070;12.698;2023-01-28T02:58:22;-0.20;1.00
14210;DHT22;7188;56.070;12.698;2023-01-28T03:00:59;-0.20;1.00
14210;DHT22;7188;56.070;12.698;2023-01-28T03:03:40;-0.30;1.00
14210;DHT22;7188;56.070;12.698;2023-01-28T03:06:14;0.10;1.00
14210;DHT22;7188;56.070;12.698;2023-01-28T03:11:33;-0.10;1.00
14210;DHT22;7188;56.070;12.698;2023-01-28T03:14:20;-0.20;1.00
14210;DHT22;7188;56.070;12.698;2023-01-28T03:17:09;-0.30;1.00
14210;DHT22;7188;56.070;12.698;2023-01-28T03:19:55;-0.30;1.00
14210;DHT22;7188;56.070;12.698;2023-01-28T03:22:40;-0.30;1.00
14210;DHT22;7188;56.070;12.698;2023-01-28T03:25:26;-0.40;1.00
14210;DHT22;7188;56.070;12.698;2023-01-28T03:28:15;-0.20;1.00
14210;DHT22;7188;56.070;12.698;2023-01-28T03:31:09;-0.10;1.00
14210;DHT22;7188;56.070;12.698;2023-01-28T03:33:56;0.00;1.00
14210;DHT22;7188;56.070;12.698;2023-01-28T03:36:42;-0.20;1.00
14210;DHT22;7188;56.070;12.698;2023-01-28T03:39:26;-0.10;1.00
14210;DHT22;7188;56.070;12.698;2023-01-28T03:42:07;-0.10;1.00
14210;DHT22;7188;56.070;12.698;2023-01-28T03:44:33;-0.30;1.00
14210;DHT22;7188;56.070;12.698;2023-01-28T03:47:29;-0.60;1.00
14210;DHT22;7188;56.070;12.698;2023-01-28T03:49:56;-0.40;1.00
14210;DHT22;7188;56.070;12.698;2023-01-28T03:52:33;0.00;1.00
14210;DHT22;7188;56.070;12.698;2023-01-28T03:54:59;-0.20;1.00
14210;DHT22;7188;56.070;12.698;2023-01-28T03:57:26;0.00;1.00
14210;DHT22;7188;56.070;12.698;2023-01-28T03:59:52;0.00;1.00
14210;DHT22;7188;56.070;12.698;2023-01-28T04:02:21;-0.30;1.00
14210;DHT22;7188;56.070;12.698;2023-01-28T04:04:47;-0.40;1.00
14210;DHT22;7188;56.070;12.698;2023-01-28T04:07:14;-0.40;1.00
14210;DHT22;7188;56.070;12.698;2023-01-28T04:09:41;-0.40;1.00
14210;DHT22;7188;56.070;12.698;2023-01-28T04:12:08;-0.30;1.00
14210;DHT22;7188;56.070;12.698;2023-01-28T04:14:34;-0.10;1.00
14210;DHT22;7188;56.070;12.698;2023-01-28T04:17:00;0.00;1.00
14210;DHT22;7188;56.070;12.698;2023-01-28T04:19:26;-0.30;1.00
14210;DHT22;7188;56.070;12.698;2023-01-28T04:21:52;-0.10;1.00
14210;DHT22;7188;56.070;12.698;2023-01-28T04:24:19;0.10;1.00
14210;DHT22;7188;56.070;12.698;2023-01-28T04:26:45;0.00;1.00
14210;DHT22;7188;56.070;12.698;2023-01-28T04:29:10;0.00;1.00
14210;DHT22;7188;56.070;12.698;2023-01-28T04:31:36;0.00;1.00
14210;DHT22;7188;56.070;12.698;2023-01-28T04:34:02;-0.10;1.00
14210;DHT22;7188;56.070;12.698;2023-01-28T04:36:27;-0.30;1.00
14210;DHT22;7188;56.070;12.698;2023-01-28T04:38:53;0.00;1.00
14210;DHT22;7188;56.070;12.698;2023-01-28T04:41:19;-0.10;1.00
14210;DHT22;7188;56.070;12.698;2023-01-28T04:43:45;-0.30;1.00
14210;DHT22;7188;56.070;12.698;2023-01-28T04:46:10;-0.40;1.00
14210;DHT22;7188;56.070;12.698;2023-01-28T04:48:36;-0.50;1.00
14210;DHT22;7188;56.070;12.698;2023-01-28T04:51:03;-0.40;1.00
14210;DHT22;7188;56.070;12.698;2023-01-28T04:53:29;0.10;1.00
14210;DHT22;7188;56.070;12.698;2023-01-28T04:56:13;0.10;1.00
14210;DHT22;7188;56.070;12.698;2023-01-28T04:58:39;0.20;1.00
14210;DHT22;7188;56.070;12.698;2023-01-28T05:01:04;0.00;1.00
14210;DHT22;7188;56.070;12.698;2023-01-28T05:03:30;0.10;1.00
14210;DHT22;7188;56.070;12.698;2023-01-28T05:05:55;0.10;1.00
14210;DHT22;7188;56.070;12.698;2023-01-28T05:08:21;-0.10;1.00
14210;DHT22;7188;56.070;12.698;2023-01-28T05:10:47;-0.30;1.00
14210;DHT22;7188;56.070;12.698;2023-01-28T05:13:12;0.00;1.00
14210;DHT22;7188;56.070;12.698;2023-01-28T05:15:38;-0.10;1.00
14210;DHT22;7188;56.070;12.698;2023-01-28T05:18:04;0.20;1.00
14210;DHT22;7188;56.070;12.698;2023-01-28T05:20:30;0.10;1.00
14210;DHT22;7188;56.070;12.698;2023-01-28T05:22:55;0.10;1.00
14210;DHT22;7188;56.070;12.698;2023-01-28T05:25:21;0.10;1.00
14210;DHT22;7188;56.070;12.698;2023-01-28T05:27:51;0.00;1.00
14210;DHT22;7188;56.070;12.698;2023-01-28T05:30:17;-0.10;1.00
14210;DHT22;7188;56.070;12.698;2023-01-28T05:32:43;0.00;1.00
14210;DHT22;7188;56.070;12.698;2023-01-28T05:35:09;-0.30;1.00
14210;DHT22;7188;56.070;12.698;2023-01-28T05:37:35;-0.40;1.00
14210;DHT22;7188;56.070;12.698;2023-01-28T05:40:00;-0.60;1.00
14210;DHT22;7188;56.070;12.698;2023-01-28T05:42:26;-0.40;1.00
14210;DHT22;7188;56.070;12.698;2023-01-28T05:44:51;-0.10;1.00
14210;DHT22;7188;56.070;12.698;2023-01-28T05:47:42;-0.20;1.00
14210;DHT22;7188;56.070;12.698;2023-01-28T05:50:08;-0.10;1.00
14210;DHT22;7188;56.070;12.698;2023-01-28T05:52:34;-0.20;1.00
14210;DHT22;7188;56.070;12.698;2023-01-28T05:54:59;-0.40;1.00
14210;DHT22;7188;56.070;12.698;2023-01-28T05:57:25;-0.70;1.00
14210;DHT22;7188;56.070;12.698;2023-01-28T05:59:51;-0.70;1.00
14210;DHT22;7188;56.070;12.698;2023-01-28T06:02:17;-0.40;1.00
14210;DHT22;7188;56.070;12.698;2023-01-28T06:04:42;-0.30;1.00
14210;DHT22;7188;56.070;12.698;2023-01-28T06:07:08;-0.60;1.00
14210;DHT22;7188;56.070;12.698;2023-01-28T06:09:33;-0.80;1.00
14210;DHT22;7188;56.070;12.698;2023-01-28T06:11:59;-0.90;1.00
14210;DHT22;7188;56.070;12.698;2023-01-28T06:14:25;-0.90;1.00
14210;DHT22;7188;56.070;12.698;2023-01-28T06:16:51;-0.80;1.00
14210;DHT22;7188;56.070;12.698;2023-01-28T06:19:16;-0.90;1.00
14210;DHT22;7188;56.070;12.698;2023-01-28T06:21:42;-0.60;1.00
14210;DHT22;7188;56.070;12.698;2023-01-28T06:24:08;-0.60;1.00
14210;DHT22;7188;56.070;12.698;2023-01-28T06:26:34;-0.80;1.00
14210;DHT22;7188;56.070;12.698;2023-01-28T06:29:00;-0.60;1.00
14210;DHT22;7188;56.070;12.698;2023-01-28T06:31:25;-0.50;1.00
14210;DHT22;7188;56.070;12.698;2023-01-28T06:33:51;-0.50;1.00
14210;DHT22;7188;56.070;12.698;2023-01-28T06:36:16;-0.60;1.00
14210;DHT22;7188;56.070;12.698;2023-01-28T06:38:42;-0.60;1.00
14210;DHT22;7188;56.070;12.698;2023-01-28T06:41:08;-0.60;1.00
14210;DHT22;7188;56.070;12.698;2023-01-28T06:43:34;-0.50;1.00
14210;DHT22;7188;56.070;12.698;2023-01-28T06:45:59;-0.60;1.00
14210;DHT22;7188;56.070;12.698;2023-01-28T06:48:26;-0.60;1.00
14210;DHT22;7188;56.070;12.698;2023-01-28T06:50:52;-0.30;1.00
14210;DHT22;7188;56.070;12.698;2023-01-28T06:53:18;-0.40;1.00
14210;DHT22;7188;56.070;12.698;2023-01-28T06:55:44;-0.40;1.00
14210;DHT22;7188;56.070;12.698;2023-01-28T06:58:10;-0.50;1.00
14210;DHT22;7188;56.070;12.698;2023-01-28T07:00:35;-0.20;1.00
14210;DHT22;7188;56.070;12.698;2023-01-28T07:03:02;0.50;1.00
14210;DHT22;7188;56.070;12.698;2023-01-28T07:05:28;0.30;1.00
14210;DHT22;7188;56.070;12.698;2023-01-28T07:07:54;0.30;1.00
14210;DHT22;7188;56.070;12.698;2023-01-28T07:10:20;0.30;1.00
14210;DHT22;7188;56.070;12.698;2023-01-28T07:12:46;0.60;1.00
14210;DHT22;7188;56.070;12.698;2023-01-28T07:15:12;0.50;1.00
14210;DHT22;7188;56.070;12.698;2023-01-28T07:17:40;0.50;1.00
14210;DHT22;7188;56.070;12.698;2023-01-28T07:20:08;0.50;1.00
14210;DHT22;7188;56.070;12.698;2023-01-28T07:22:35;0.50;1.00
14210;DHT22;7188;56.070;12.698;2023-01-28T07:25:02;0.60;1.00
14210;DHT22;7188;56.070;12.698;2023-01-28T07:27:28;0.70;1.00
14210;DHT22;7188;56.070;12.698;2023-01-28T07:29:53;0.70;1.00
14210;DHT22;7188;56.070;12.698;2023-01-28T07:32:19;0.90;1.00
14210;DHT22;7188;56.070;12.698;2023-01-28T07:34:44;0.90;1.00
14210;DHT22;7188;56.070;12.698;2023-01-28T07:37:10;0.80;1.00
14210;DHT22;7188;56.070;12.698;2023-01-28T07:39:36;0.80;1.00
14210;DHT22;7188;56.070;12.698;2023-01-28T07:42:01;0.90;1.00
14210;DHT22;7188;56.070;12.698;2023-01-28T07:44:27;0.80;1.00
14210;DHT22;7188;56.070;12.698;2023-01-28T07:46:53;0.80;1.00
14210;DHT22;7188;56.070;12.698;2023-01-28T07:49:19;0.70;1.00
14210;DHT22;7188;56.070;12.698;2023-01-28T07:51:44;0.70;1.00
14210;DHT22;7188;56.070;12.698;2023-01-28T07:54:15;0.70;1.00
14210;DHT22;7188;56.070;12.698;2023-01-28T07:56:41;0.80;1.00
14210;DHT22;7188;56.070;12.698;2023-01-28T07:59:06;0.90;1.00
14210;DHT22;7188;56.070;12.698;2023-01-28T08:01:32;0.80;1.00
14210;DHT22;7188;56.070;12.698;2023-01-28T08:03:57;0.70;99.90
14210;DHT22;7188;56.070;12.698;2023-01-28T08:06:23;0.60;99.90
14210;DHT22;7188;56.070;12.698;2023-01-28T08:08:49;0.50;99.90
14210;DHT22;7188;56.070;12.698;2023-01-28T08:11:15;0.50;99.90
14210;DHT22;7188;56.070;12.698;2023-01-28T08:13:40;0.40;99.90
14210;DHT22;7188;56.070;12.698;2023-01-28T08:16:06;0.50;99.90
14210;DHT22;7188;56.070;12.698;2023-01-28T08:18:32;0.50;99.90
14210;DHT22;7188;56.070;12.698;2023-01-28T08:20:58;0.50;99.90
14210;DHT22;7188;56.070;12.698;2023-01-28T08:23:24;0.50;99.90
14210;DHT22;7188;56.070;12.698;2023-01-28T08:25:57;0.50;99.90
14210;DHT22;7188;56.070;12.698;2023-01-28T08:28:23;0.50;99.90
14210;DHT22;7188;56.070;12.698;2023-01-28T08:30:49;0.50;99.90
14210;DHT22;7188;56.070;12.698;2023-01-28T08:33:16;0.50;99.90
14210;DHT22;7188;56.070;12.698;2023-01-28T08:35:42;0.50;99.90
14210;DHT22;7188;56.070;12.698;2023-01-28T08:38:10;0.50;99.90
14210;DHT22;7188;56.070;12.698;2023-01-28T08:40:37;0.60;99.90
14210;DHT22;7188;56.070;12.698;2023-01-28T08:43:03;0.60;99.90
14210;DHT22;7188;56.070;12.698;2023-01-28T08:45:29;0.60;99.90
14210;DHT22;7188;56.070;12.698;2023-01-28T08:48:01;0.60;99.90
14210;DHT22;7188;56.070;12.698;2023-01-28T08:50:30;0.60;99.90
14210;DHT22;7188;56.070;12.698;2023-01-28T08:52:59;0.70;99.90
14210;DHT22;7188;56.070;12.698;2023-01-28T08:55:26;0.70;99.90
14210;DHT22;7188;56.070;12.698;2023-01-28T08:57:52;0.80;99.90
14210;DHT22;7188;56.070;12.698;2023-01-28T09:00:20;0.80;99.90
14210;DHT22;7188;56.070;12.698;2023-01-28T09:02:46;0.80;99.90
14210;DHT22;7188;56.070;12.698;2023-01-28T09:05:12;0.90;99.90
14210;DHT22;7188;56.070;12.698;2023-01-28T09:07:38;1.00;99.90
14210;DHT22;7188;56.070;12.698;2023-01-28T09:10:04;1.00;99.90
14210;DHT22;7188;56.070;12.698;2023-01-28T09:12:31;1.00;99.90
14210;DHT22;7188;56.070;12.698;2023-01-28T09:14:57;1.10;99.90
14210;DHT22;7188;56.070;12.698;2023-01-28T09:17:23;1.00;99.90
14210;DHT22;7188;56.070;12.698;2023-01-28T09:19:49;1.00;99.90
14210;DHT22;7188;56.070;12.698;2023-01-28T09:22:15;1.00;99.90
14210;DHT22;7188;56.070;12.698;2023-01-28T09:24:41;1.00;99.90
14210;DHT22;7188;56.070;12.698;2023-01-28T09:27:07;1.00;99.90
14210;DHT22;7188;56.070;12.698;2023-01-28T09:29:33;1.00;99.90
14210;DHT22;7188;56.070;12.698;2023-01-28T09:31:59;1.10;99.90
14210;DHT22;7188;56.070;12.698;2023-01-28T09:34:25;1.10;99.90
14210;DHT22;7188;56.070;12.698;2023-01-28T09:36:51;1.10;99.90
14210;DHT22;7188;56.070;12.698;2023-01-28T09:39:16;1.20;99.90
14210;DHT22;7188;56.070;12.698;2023-01-28T09:47:01;1.20;99.90
14210;DHT22;7188;56.070;12.698;2023-01-28T09:49:39;1.30;99.90
14210;DHT22;7188;56.070;12.698;2023-01-28T09:52:14;1.30;99.90
14210;DHT22;7188;56.070;12.698;2023-01-28T09:54:49;1.30;99.90
14210;DHT22;7188;56.070;12.698;2023-01-28T09:57:22;1.40;99.90
14210;DHT22;7188;56.070;12.698;2023-01-28T09:59:48;1.30;99.90
14210;DHT22;7188;56.070;12.698;2023-01-28T10:02:23;1.40;99.90
14210;DHT22;7188;56.070;12.698;2023-01-28T10:07:33;1.40;99.90
14210;DHT22;7188;56.070;12.698;2023-01-28T10:10:02;1.50;99.90
14210;DHT22;7188;56.070;12.698;2023-01-28T10:17:55;1.60;99.90
14210;DHT22;7188;56.070;12.698;2023-01-28T10:20:28;1.60;99.90
14210;DHT22;7188;56.070;12.698;2023-01-28T10:23:19;1.70;99.90
14210;DHT22;7188;56.070;12.698;2023-01-28T10:25:46;1.60;99.90
14210;DHT22;7188;56.070;12.698;2023-01-28T10:28:25;1.70;99.90
14210;DHT22;7188;56.070;12.698;2023-01-28T10:30:52;1.70;95.50
14210;DHT22;7188;56.070;12.698;2023-01-28T10:35:53;1.80;57.10
14210;DHT22;7188;56.070;12.698;2023-01-28T10:38:23;1.80;13.60
14210;DHT22;7188;56.070;12.698;2023-01-28T10:40:50;1.80;19.40
14210;DHT22;7188;56.070;12.698;2023-01-28T10:43:22;1.90;1.00
14210;DHT22;7188;56.070;12.698;2023-01-28T10:48:29;2.00;1.00
14210;DHT22;7188;56.070;12.698;2023-01-28T10:50:58;2.00;1.00
14210;DHT22;7188;56.070;12.698;2023-01-28T10:53:40;2.10;1.00
14210;DHT22;7188;56.070;12.698;2023-01-28T10:56:08;2.10;1.00
14210;DHT22;7188;56.070;12.698;2023-01-28T10:58:46;2.10;1.00
14210;DHT22;7188;56.070;12.698;2023-01-28T11:01:12;2.10;1.00
14210;DHT22;7188;56.070;12.698;2023-01-28T11:03:40;2.10;1.00
14210;DHT22;7188;56.070;12.698;2023-01-28T11:06:27;2.20;1.00
14210;DHT22;7188;56.070;12.698;2023-01-28T11:08:53;2.20;1.00
14210;DHT22;7188;56.070;12.698;2023-01-28T11:11:25;2.20;1.00
14210;DHT22;7188;56.070;12.698;2023-01-28T11:13:52;2.30;1.00
14210;DHT22;7188;56.070;12.698;2023-01-28T11:16:19;2.30;1.00
14210;DHT22;7188;56.070;12.698;2023-01-28T11:18:54;2.40;1.00
14210;DHT22;7188;56.070;12.698;2023-01-28T11:21:26;2.40;1.00
14210;DHT22;7188;56.070;12.698;2023-01-28T11:23:56;2.40;99.90
14210;DHT22;7188;56.070;12.698;2023-01-28T11:26:25;2.40;1.00
14210;DHT22;7188;56.070;12.698;2023-01-28T11:28:52;2.40;99.90
14210;DHT22;7188;56.070;12.698;2023-01-28T11:31:19;2.40;99.90
14210;DHT22;7188;56.070;12.698;2023-01-28T11:33:55;2.40;99.90
14210;DHT22;7188;56.070;12.698;2023-01-28T11:36:26;2.40;1.00
14210;DHT22;7188;56.070;12.698;2023-01-28T11:39:19;2.40;99.90
14210;DHT22;7188;56.070;12.698;2023-01-28T11:41:47;2.50;1.00
14210;DHT22;7188;56.070;12.698;2023-01-28T11:44:20;2.60;1.00
14210;DHT22;7188;56.070;12.698;2023-01-28T11:47:03;2.60;99.90
14210;DHT22;7188;56.070;12.698;2023-01-28T11:58:05;2.60;1.00
14210;DHT22;7188;56.070;12.698;2023-01-28T12:06:04;2.60;99.90
14210;DHT22;7188;56.070;12.698;2023-01-28T12:11:32;2.60;99.90
14210;DHT22;7188;56.070;12.698;2023-01-28T12:22:40;2.70;1.00
14210;DHT22;7188;56.070;12.698;2023-01-28T12:28:31;2.70;1.00
14210;DHT22;7188;56.070;12.698;2023-01-28T12:31:21;2.70;1.00
14210;DHT22;7188;56.070;12.698;2023-01-28T12:37:10;2.70;1.00
14210;DHT22;7188;56.070;12.698;2023-01-28T12:42:36;2.70;1.00
14210;DHT22;7188;56.070;12.698;2023-01-28T12:45:15;2.70;1.00
14210;DHT22;7188;56.070;12.698;2023-01-28T12:48:03;2.80;1.00
14210;DHT22;7188;56.070;12.698;2023-01-28T12:51:17;2.80;1.00
14210;DHT22;7188;56.070;12.698;2023-01-28T12:53:29;2.80;1.00
14210;DHT22;7188;56.070;12.698;2023-01-28T13:07:21;3.00;1.00
14210;DHT22;7188;56.070;12.698;2023-01-28T13:09:53;3.00;1.00
14210;DHT22;7188;56.070;12.698;2023-01-28T13:12:23;3.00;10.70
14210;DHT22;7188;56.070;12.698;2023-01-28T13:14:49;3.30;99.90
14210;DHT22;7188;56.070;12.698;2023-01-28T13:17:27;3.30;1.00
14210;DHT22;7188;56.070;12.698;2023-01-28T13:19:53;3.20;1.00
14210;DHT22;7188;56.070;12.698;2023-01-28T13:22:34;3.20;1.00
14210;DHT22;7188;56.070;12.698;2023-01-28T13:27:38;3.10;1.00
14210;DHT22;7188;56.070;12.698;2023-01-28T13:30:28;3.10;1.00
14210;DHT22;7188;56.070;12.698;2023-01-28T13:33:03;3.10;1.00
14210;DHT22;7188;56.070;12.698;2023-01-28T13:35:35;3.10;1.00
14210;DHT22;7188;56.070;12.698;2023-01-28T13:38:17;3.10;1.00
14210;DHT22;7188;56.070;12.698;2023-01-28T13:40:53;3.10;4.30
14210;DHT22;7188;56.070;12.698;2023-01-28T13:46:26;3.10;41.50
14210;DHT22;7188;56.070;12.698;2023-01-28T13:48:54;3.20;99.90
14210;DHT22;7188;56.070;12.698;2023-01-28T13:53:57;3.20;99.90
14210;DHT22;7188;56.070;12.698;2023-01-28T13:59:51;3.20;99.90
14210;DHT22;7188;56.070;12.698;2023-01-28T14:05:18;3.10;99.90
14210;DHT22;7188;56.070;12.698;2023-01-28T14:13:58;3.10;1.00
14210;DHT22;7188;56.070;12.698;2023-01-28T14:16:47;3.10;1.00
14210;DHT22;7188;56.070;12.698;2023-01-28T14:19:19;3.10;1.00
14210;DHT22;7188;56.070;12.698;2023-01-28T14:21:46;3.10;1.00
14210;DHT22;7188;56.070;12.698;2023-01-28T14:24:15;3.20;1.00
14210;DHT22;7188;56.070;12.698;2023-01-28T14:26:56;3.20;1.00
14210;DHT22;7188;56.070;12.698;2023-01-28T14:31:53;3.20;1.00
14210;DHT22;7188;56.070;12.698;2023-01-28T14:34:30;3.20;1.00
14210;DHT22;7188;56.070;12.698;2023-01-28T14:37:03;3.20;1.00
14210;DHT22;7188;56.070;12.698;2023-01-28T14:39:31;3.20;1.00
14210;DHT22;7188;56.070;12.698;2023-01-28T14:42:00;3.20;1.00
14210;DHT22;7188;56.070;12.698;2023-01-28T14:44:35;3.20;1.00
14210;DHT22;7188;56.070;12.698;2023-01-28T14:53:45;3.30;1.00
14210;DHT22;7188;56.070;12.698;2023-01-28T14:56:19;3.30;1.00
14210;DHT22;7188;56.070;12.698;2023-01-28T14:58:52;3.30;1.00
14210;DHT22;7188;56.070;12.698;2023-01-28T15:01:26;3.30;1.00
14210;DHT22;7188;56.070;12.698;2023-01-28T15:03:52;3.30;1.00
14210;DHT22;7188;56.070;12.698;2023-01-28T15:06:24;3.30;1.00
14210;DHT22;7188;56.070;12.698;2023-01-28T15:09:05;3.30;1.00
14210;DHT22;7188;56.070;12.698;2023-01-28T15:11:31;3.40;1.00
14210;DHT22;7188;56.070;12.698;2023-01-28T15:13:58;3.40;1.00
14210;DHT22;7188;56.070;12.698;2023-01-28T15:16:26;3.40;1.00
14210;DHT22;7188;56.070;12.698;2023-01-28T15:18:58;3.40;1.00
14210;DHT22;7188;56.070;12.698;2023-01-28T15:21:26;3.40;1.00
14210;DHT22;7188;56.070;12.698;2023-01-28T15:23:57;3.40;1.00
14210;DHT22;7188;56.070;12.698;2023-01-28T15:26:30;3.40;1.00
14210;DHT22;7188;56.070;12.698;2023-01-28T15:28:56;3.30;1.00
14210;DHT22;7188;56.070;12.698;2023-01-28T15:36:22;3.40;21.70
14210;DHT22;7188;56.070;12.698;2023-01-28T15:38:48;3.40;33.50
14210;DHT22;7188;56.070;12.698;2023-01-28T15:41:14;3.40;35.60
14210;DHT22;7188;56.070;12.698;2023-01-28T15:43:47;3.40;40.80
14210;DHT22;7188;56.070;12.698;2023-01-28T15:46:13;3.40;52.50
14210;DHT22;7188;56.070;12.698;2023-01-28T15:48:46;3.50;58.50
14210;DHT22;7188;56.070;12.698;2023-01-28T15:51:27;3.50;72.80
14210;DHT22;7188;56.070;12.698;2023-01-28T15:54:02;3.50;91.60
14210;DHT22;7188;56.070;12.698;2023-01-28T15:56:29;3.50;98.00
14210;DHT22;7188;56.070;12.698;2023-01-28T15:59:28;3.50;99.90
14210;DHT22;7188;56.070;12.698;2023-01-28T16:02:17;3.50;99.90
14210;DHT22;7188;56.070;12.698;2023-01-28T16:04:54;3.60;99.90
14210;DHT22;7188;56.070;12.698;2023-01-28T16:07:45;3.60;99.90
14210;DHT22;7188;56.070;12.698;2023-01-28T16:10:22;3.60;99.90
14210;DHT22;7188;56.070;12.698;2023-01-28T16:13:18;3.60;99.90
14210;DHT22;7188;56.070;12.698;2023-01-28T16:15:46;3.60;99.90
14210;DHT22;7188;56.070;12.698;2023-01-28T16:18:47;3.60;99.90
14210;DHT22;7188;56.070;12.698;2023-01-28T16:21:31;3.70;99.90
14210;DHT22;7188;56.070;12.698;2023-01-28T16:24:18;3.80;99.90
14210;DHT22;7188;56.070;12.698;2023-01-28T16:27:04;3.70;99.90
14210;DHT22;7188;56.070;12.698;2023-01-28T16:29:32;3.80;99.90
14210;DHT22;7188;56.070;12.698;2023-01-28T16:32:00;3.80;99.90
14210;DHT22;7188;56.070;12.698;2023-01-28T16:34:28;4.40;99.90
14210;DHT22;7188;56.070;12.698;2023-01-28T16:37:00;4.70;99.90
14210;DHT22;7188;56.070;12.698;2023-01-28T16:39:26;4.50;99.90
14210;DHT22;7188;56.070;12.698;2023-01-28T16:41:52;4.30;99.90
14210;DHT22;7188;56.070;12.698;2023-01-28T16:44:21;4.20;99.90
14210;DHT22;7188;56.070;12.698;2023-01-28T16:46:46;4.10;99.90
14210;DHT22;7188;56.070;12.698;2023-01-28T16:49:13;4.10;99.90
14210;DHT22;7188;56.070;12.698;2023-01-28T16:51:40;4.00;99.90
14210;DHT22;7188;56.070;12.698;2023-01-28T16:54:11;4.00;99.90
14210;DHT22;7188;56.070;12.698;2023-01-28T16:56:55;4.00;99.90
14210;DHT22;7188;56.070;12.698;2023-01-28T16:59:21;4.10;99.90
14210;DHT22;7188;56.070;12.698;2023-01-28T17:01:48;4.00;99.90
14210;DHT22;7188;56.070;12.698;2023-01-28T17:04:14;4.00;99.90
14210;DHT22;7188;56.070;12.698;2023-01-28T17:06:41;4.10;99.90
14210;DHT22;7188;56.070;12.698;2023-01-28T17:09:09;4.10;99.90
14210;DHT22;7188;56.070;12.698;2023-01-28T17:11:34;4.10;99.90
14210;DHT22;7188;56.070;12.698;2023-01-28T17:14:01;4.10;99.90
14210;DHT22;7188;56.070;12.698;2023-01-28T17:16:27;4.10;99.90
14210;DHT22;7188;56.070;12.698;2023-01-28T17:18:53;4.10;99.90
14210;DHT22;7188;56.070;12.698;2023-01-28T17:21:19;4.10;99.90
14210;DHT22;7188;56.070;12.698;2023-01-28T17:23:45;4.10;99.90
14210;DHT22;7188;56.070;12.698;2023-01-28T17:26:13;4.10;99.90
14210;DHT22;7188;56.070;12.698;2023-01-28T17:28:40;4.10;99.90
14210;DHT22;7188;56.070;12.698;2023-01-28T17:31:12;4.10;99.90
14210;DHT22;7188;56.070;12.698;2023-01-28T17:33:38;4.20;99.90
14210;DHT22;7188;56.070;12.698;2023-01-28T17:36:04;4.10;99.90
14210;DHT22;7188;56.070;12.698;2023-01-28T17:38:30;4.10;99.90
14210;DHT22;7188;56.070;12.698;2023-01-28T17:41:00;4.20;99.90
14210;DHT22;7188;56.070;12.698;2023-01-28T17:43:26;4.20;99.90
14210;DHT22;7188;56.070;12.698;2023-01-28T17:45:52;4.20;99.90
14210;DHT22;7188;56.070;12.698;2023-01-28T17:48:18;4.20;99.90
14210;DHT22;7188;56.070;12.698;2023-01-28T17:50:43;4.20;99.90
14210;DHT22;7188;56.070;12.698;2023-01-28T17:53:09;4.20;99.90
14210;DHT22;7188;56.070;12.698;2023-01-28T17:55:35;4.20;99.90
14210;DHT22;7188;56.070;12.698;2023-01-28T17:58:04;4.20;99.90
14210;DHT22;7188;56.070;12.698;2023-01-28T18:00:30;4.20;99.90
14210;DHT22;7188;56.070;12.698;2023-01-28T18:02:55;4.20;99.90
14210;DHT22;7188;56.070;12.698;2023-01-28T18:05:21;4.20;99.90
14210;DHT22;7188;56.070;12.698;2023-01-28T18:07:47;4.30;99.90